createdAt,value
2018-12-07T00:01:52.809Z,8.88
2018-12-07T00:04:28.513Z,8.76
2018-12-07T00:07:04.392Z,8.76
2018-12-07T00:09:40.177Z,8.72
2018-12-07T00:12:15.891Z,8.66
2018-12-07T00:14:51.657Z,8.75
2018-12-07T00:17:27.848Z,8.78
2018-12-07T00:20:04.064Z,8.72
2018-12-07T00:22:39.933Z,8.66
2018-12-07T00:25:15.759Z,8.66
2018-12-07T00:27:51.597Z,8.70
2018-12-07T00:30:27.372Z,8.73
2018-12-07T00:33:03.098Z,8.76
2018-12-07T00:35:38.936Z,8.66
2018-12-07T00:38:14.704Z,8.66
2018-12-07T00:40:50.694Z,8.67
2018-12-07T00:43:26.878Z,8.67
2018-12-07T00:46:02.811Z,8.69
2018-12-07T00:48:38.620Z,8.73
2018-12-07T00:51:14.435Z,8.74
2018-12-07T00:53:50.189Z,8.69
2018-12-07T00:56:26.021Z,8.73
2018-12-07T00:59:01.739Z,8.76
2018-12-07T01:01:37.751Z,8.81
2018-12-07T01:04:13.803Z,8.78
2018-12-07T01:06:50.396Z,8.79
2018-12-07T01:09:26.089Z,8.80
2018-12-07T01:12:01.876Z,8.70
2018-12-07T01:14:37.590Z,8.65
2018-12-07T01:17:13.449Z,8.62
2018-12-07T01:19:50.201Z,8.60
2018-12-07T01:22:25.861Z,8.59
2018-12-07T01:25:01.828Z,8.66
2018-12-07T01:27:37.721Z,8.75
2018-12-07T01:30:13.788Z,8.86
2018-12-07T01:32:49.897Z,8.88
2018-12-07T01:35:25.687Z,8.90
2018-12-07T01:38:01.395Z,8.83
2018-12-07T01:40:37.287Z,8.80
2018-12-07T01:43:13.102Z,8.84
2018-12-07T01:45:48.994Z,8.78
2018-12-07T01:48:24.707Z,8.79
2018-12-07T01:51:00.594Z,8.76
2018-12-07T01:53:36.469Z,8.82
2018-12-07T01:56:12.228Z,8.91
2018-12-07T01:58:48.025Z,8.98
2018-12-07T02:01:23.671Z,8.99
2018-12-07T02:03:59.488Z,8.93
2018-12-07T02:06:35.259Z,8.89
2018-12-07T02:09:11.048Z,8.91
2018-12-07T02:11:47.187Z,8.94
2018-12-07T02:14:23.125Z,8.89
2018-12-07T02:16:58.967Z,8.91
2018-12-07T02:19:34.706Z,8.96
2018-12-07T02:22:10.713Z,9.00
2018-12-07T02:24:46.451Z,9.07
2018-12-07T02:27:22.285Z,9.09
2018-12-07T02:29:57.984Z,9.13
2018-12-07T02:32:33.732Z,9.21
2018-12-07T02:35:09.517Z,9.32
2018-12-07T02:37:45.238Z,9.40
2018-12-07T02:40:21.042Z,9.44
2018-12-07T02:42:58.326Z,9.48
2018-12-07T02:45:34.049Z,9.42
2018-12-07T02:48:09.770Z,9.38
2018-12-07T02:50:45.658Z,9.44
2018-12-07T02:53:21.418Z,9.48
2018-12-07T02:55:57.235Z,9.48
2018-12-07T02:58:33.248Z,9.50
2018-12-07T03:01:09.080Z,9.47
2018-12-07T03:03:44.759Z,9.41
2018-12-07T03:06:20.549Z,9.39
2018-12-07T03:08:56.261Z,9.38
2018-12-07T03:11:33.031Z,9.27
2018-12-07T03:14:08.844Z,9.29
2018-12-07T03:16:44.691Z,9.26
2018-12-07T03:19:20.603Z,9.20
2018-12-07T03:21:56.440Z,9.19
2018-12-07T03:24:32.355Z,9.19
2018-12-07T03:27:08.152Z,9.17
2018-12-07T03:29:43.853Z,9.19
2018-12-07T03:32:19.773Z,9.11
2018-12-07T03:34:55.607Z,9.07
2018-12-07T03:37:31.485Z,9.03
2018-12-07T03:40:07.854Z,9.07
2018-12-07T03:42:43.696Z,9.17
2018-12-07T03:45:19.470Z,9.02
2018-12-07T03:47:55.187Z,9.03
2018-12-07T03:50:30.990Z,8.96
2018-12-07T03:53:06.943Z,8.98
2018-12-07T03:55:43.001Z,8.97
2018-12-07T03:58:18.876Z,9.00
2018-12-07T04:00:54.669Z,8.98
2018-12-07T04:03:30.376Z,8.96
2018-12-07T04:06:06.720Z,8.92
2018-12-07T04:08:42.565Z,8.89
2018-12-07T04:11:18.293Z,8.94
2018-12-07T04:13:54.033Z,9.05
2018-12-07T04:16:29.753Z,8.97
2018-12-07T04:19:05.697Z,9.06
2018-12-07T04:21:41.352Z,9.03
2018-12-07T04:24:17.206Z,9.11
2018-12-07T04:26:53.715Z,8.97
2018-12-07T04:29:30.388Z,8.90
2018-12-07T04:32:06.337Z,8.86
2018-12-07T04:34:43.095Z,8.84
2018-12-07T04:40:00.540Z,8.89
2018-12-07T04:42:36.321Z,8.89
2018-12-07T04:45:12.189Z,8.93
2018-12-07T04:47:48.327Z,8.88
2018-12-07T04:50:24.297Z,8.94
2018-12-07T04:53:00.952Z,8.89
2018-12-07T04:55:36.774Z,8.83
2018-12-07T04:58:12.678Z,8.89
2018-12-07T05:00:48.354Z,8.92
2018-12-07T05:03:24.088Z,8.93
2018-12-07T05:05:59.805Z,8.84
2018-12-07T05:08:35.642Z,8.75
2018-12-07T05:11:11.397Z,8.77
2018-12-07T05:13:47.150Z,8.74
2018-12-07T05:16:23.069Z,8.76
2018-12-07T05:18:59.018Z,8.77
2018-12-07T05:21:34.746Z,8.80
2018-12-07T05:24:10.690Z,8.78
2018-12-07T05:26:46.428Z,8.76
2018-12-07T05:29:22.967Z,8.78
2018-12-07T05:31:58.875Z,8.80
2018-12-07T05:34:34.647Z,8.77
2018-12-07T05:37:10.322Z,8.74
2018-12-07T05:39:46.297Z,8.79
2018-12-07T05:42:22.063Z,8.73
2018-12-07T05:44:57.860Z,8.75
2018-12-07T05:47:33.516Z,8.70
2018-12-07T05:50:09.521Z,8.66
2018-12-07T05:52:45.429Z,8.66
2018-12-07T05:55:21.258Z,8.64
2018-12-07T05:57:57.173Z,8.66
2018-12-07T06:00:32.962Z,8.60
2018-12-07T06:03:08.720Z,8.53
2018-12-07T06:05:44.374Z,8.46
2018-12-07T06:08:20.176Z,8.45
2018-12-07T06:10:56.526Z,8.52
2018-12-07T06:13:33.990Z,8.44
2018-12-07T06:16:09.951Z,8.46
2018-12-07T06:18:45.636Z,8.50
2018-12-07T06:21:21.412Z,8.48
2018-12-07T06:23:57.323Z,8.45
2018-12-07T06:26:33.410Z,8.53
2018-12-07T06:29:09.250Z,8.51
2018-12-07T06:31:45.246Z,8.40
2018-12-07T06:34:21.070Z,8.41
2018-12-07T06:36:56.864Z,8.42
2018-12-07T06:39:32.628Z,8.49
2018-12-07T06:42:08.549Z,8.49
2018-12-07T06:44:44.400Z,8.54
2018-12-07T06:47:20.150Z,8.56
2018-12-07T06:49:55.865Z,8.57
2018-12-07T06:52:31.702Z,8.52
2018-12-07T06:55:07.801Z,8.59
2018-12-07T06:57:43.695Z,8.52
2018-12-07T07:00:19.596Z,8.48
2018-12-07T07:02:55.458Z,8.57
2018-12-07T07:05:31.223Z,8.61
2018-12-07T07:08:07.868Z,8.57
2018-12-07T07:10:43.776Z,8.51
2018-12-07T07:13:19.795Z,8.51
2018-12-07T07:15:55.749Z,8.48
2018-12-07T07:18:31.461Z,8.48
2018-12-07T07:21:07.376Z,8.48
2018-12-07T07:23:43.178Z,8.50
2018-12-07T07:26:19.133Z,8.50
2018-12-07T07:28:55.120Z,8.46
2018-12-07T07:31:31.217Z,8.50
2018-12-07T07:34:07.172Z,8.51
2018-12-07T07:36:43.008Z,8.55
2018-12-07T07:39:18.862Z,8.60
2018-12-07T07:41:54.680Z,8.66
2018-12-07T07:44:30.563Z,8.61
2018-12-07T07:47:06.481Z,8.65
2018-12-07T07:49:42.283Z,8.74
2018-12-07T07:52:18.095Z,8.74
2018-12-07T07:54:54.092Z,8.80
2018-12-07T07:57:29.933Z,8.83
2018-12-07T08:00:06.884Z,8.88
2018-12-07T08:02:42.716Z,8.90
2018-12-07T08:05:18.469Z,8.96
2018-12-07T08:07:55.626Z,8.96
2018-12-07T08:10:31.647Z,8.95
2018-12-07T08:13:07.514Z,9.02
2018-12-07T08:15:43.341Z,9.14
2018-12-07T08:18:19.150Z,9.19
2018-12-07T08:20:55.192Z,9.28
2018-12-07T08:23:31.041Z,9.38
2018-12-07T08:26:06.946Z,9.54
2018-12-07T08:28:42.731Z,9.62
2018-12-07T08:31:18.579Z,9.73
2018-12-07T08:33:54.784Z,9.88
2018-12-07T08:36:30.525Z,9.97
2018-12-07T08:39:11.019Z,10.00
2018-12-07T08:41:46.939Z,9.94
2018-12-07T08:44:22.633Z,10.15
2018-12-07T08:46:58.462Z,10.43
2018-12-07T08:49:39.401Z,10.49
2018-12-07T08:52:15.354Z,10.52
2018-12-07T08:54:51.296Z,10.74
2018-12-07T08:57:27.072Z,10.98
2018-12-07T09:00:02.846Z,11.18
2018-12-07T09:02:39.619Z,10.94
2018-12-07T09:05:16.062Z,11.17
2018-12-07T09:07:51.807Z,11.11
2018-12-07T09:10:27.901Z,11.12
2018-12-07T09:13:03.582Z,11.09
2018-12-07T09:15:40.735Z,11.05
2018-12-07T09:18:16.463Z,11.01
2018-12-07T09:20:54.124Z,10.74
2018-12-07T09:23:30.052Z,10.96
2018-12-07T09:26:05.827Z,10.94
2018-12-07T09:28:42.541Z,10.96
2018-12-07T09:31:18.353Z,10.90
2018-12-07T09:33:54.237Z,11.33
2018-12-07T09:36:30.001Z,11.12
2018-12-07T09:39:09.973Z,11.89
2018-12-07T09:41:45.777Z,12.76
2018-12-07T09:44:21.450Z,13.80
2018-12-07T09:46:57.442Z,13.42
2018-12-07T09:49:33.397Z,13.32
2018-12-07T09:52:09.250Z,14.28
2018-12-07T09:54:45.168Z,15.07
2018-12-07T09:57:20.826Z,15.28
2018-12-07T09:59:56.785Z,15.29
2018-12-07T10:02:32.764Z,14.47
2018-12-07T10:05:08.809Z,16.07
2018-12-07T10:07:45.344Z,17.80
2018-12-07T10:10:21.175Z,19.27
2018-12-07T10:12:56.821Z,17.91
2018-12-07T10:15:32.744Z,18.37
2018-12-07T10:18:08.728Z,16.78
2018-12-07T10:20:44.692Z,15.14
2018-12-07T10:23:20.486Z,14.86
2018-12-07T10:25:56.457Z,14.46
2018-12-07T10:28:32.354Z,14.22
2018-12-07T10:31:08.241Z,13.66
2018-12-07T10:33:44.177Z,13.21
2018-12-07T10:36:19.990Z,12.82
2018-12-07T10:38:55.777Z,12.84
2018-12-07T10:41:31.859Z,12.72
2018-12-07T10:44:07.708Z,13.06
2018-12-07T10:46:43.856Z,13.06
2018-12-07T10:49:19.739Z,12.33
2018-12-07T10:51:55.757Z,12.07
2018-12-07T10:54:31.809Z,12.33
2018-12-07T10:57:07.572Z,12.19
2018-12-07T10:59:43.608Z,12.57
2018-12-07T11:02:24.602Z,12.76
2018-12-07T11:05:05.697Z,12.83
2018-12-07T11:07:46.692Z,12.25
2018-12-07T11:10:27.653Z,11.66
2018-12-07T11:13:09.437Z,11.96
2018-12-07T11:15:50.512Z,11.88
2018-12-07T11:18:31.414Z,11.91
2018-12-07T11:21:14.816Z,11.74
2018-12-07T11:24:00.568Z,11.15
2018-12-07T11:26:41.736Z,10.99
2018-12-07T11:29:22.806Z,10.80
2018-12-07T11:32:03.690Z,10.74
2018-12-07T11:37:27.135Z,10.75
2018-12-07T11:40:03.947Z,10.54
2018-12-07T11:42:39.813Z,10.46
2018-12-07T11:45:15.629Z,10.33
2018-12-07T11:47:51.988Z,10.37
2018-12-07T11:50:28.018Z,10.39
2018-12-07T11:53:04.099Z,10.33
2018-12-07T11:55:41.077Z,10.34
2018-12-07T11:58:18.740Z,10.45
2018-12-07T12:00:57.026Z,10.72
2018-12-07T12:03:32.869Z,10.72
2018-12-07T12:06:08.888Z,10.86
2018-12-07T12:08:44.895Z,11.56
2018-12-07T12:11:20.730Z,12.03
2018-12-07T12:13:58.268Z,11.76
2018-12-07T12:16:34.267Z,11.24
2018-12-07T12:19:10.830Z,11.15
2018-12-07T12:21:46.866Z,10.80
2018-12-07T12:24:22.926Z,10.84
2018-12-07T12:26:58.882Z,10.95
2018-12-07T12:29:34.629Z,11.06
2018-12-07T12:32:10.612Z,10.97
2018-12-07T12:34:46.722Z,10.89
2018-12-07T12:37:22.678Z,11.03
2018-12-07T12:39:58.465Z,11.06
2018-12-07T12:42:34.186Z,11.09
2018-12-07T12:45:10.316Z,10.98
2018-12-07T12:47:46.137Z,11.09
2018-12-07T12:50:27.172Z,11.17
2018-12-07T12:53:03.165Z,11.26
2018-12-07T12:55:39.065Z,11.11
2018-12-07T12:58:14.940Z,11.07
2018-12-07T13:00:50.711Z,11.24
2018-12-07T13:03:26.814Z,11.12
2018-12-07T13:06:02.566Z,11.02
2018-12-07T13:08:38.372Z,11.01
2018-12-07T13:11:14.292Z,11.00
2018-12-07T13:13:50.989Z,11.12
2018-12-07T13:16:26.662Z,11.23
2018-12-07T13:19:05.057Z,11.31
2018-12-07T13:21:40.989Z,11.42
2018-12-07T13:24:16.835Z,11.26
2018-12-07T13:26:52.856Z,11.62
2018-12-07T13:29:28.608Z,11.79
2018-12-07T13:32:04.512Z,11.69
2018-12-07T13:34:40.305Z,12.09
2018-12-07T13:37:17.177Z,12.17
2018-12-07T13:39:54.079Z,12.09
2018-12-07T13:42:29.949Z,11.67
2018-12-07T13:45:07.455Z,11.53
2018-12-07T13:47:43.847Z,11.52
2018-12-07T13:50:24.981Z,11.44
2018-12-07T13:53:02.605Z,11.61
2018-12-07T13:55:38.988Z,11.71
2018-12-07T13:58:14.921Z,11.72
2018-12-07T14:00:54.939Z,11.53
2018-12-07T14:03:30.872Z,11.65
2018-12-07T14:06:06.875Z,11.74
2018-12-07T14:08:42.848Z,11.87
2018-12-07T14:11:19.307Z,11.88
2018-12-07T14:13:55.161Z,11.84
2018-12-07T14:19:11.526Z,11.52
2018-12-07T14:21:47.309Z,11.70
2018-12-07T14:24:23.407Z,11.58
2018-12-07T14:26:59.704Z,11.56
2018-12-07T14:29:35.995Z,11.36
2018-12-07T14:32:11.890Z,11.27
2018-12-07T14:34:47.808Z,11.37
2018-12-07T14:37:23.911Z,11.39
2018-12-07T14:39:59.869Z,11.31
2018-12-07T14:42:35.977Z,11.01
2018-12-07T14:45:13.472Z,10.59
2018-12-07T14:47:49.355Z,10.28
2018-12-07T14:50:25.136Z,9.97
2018-12-07T14:53:01.102Z,9.79
2018-12-07T14:55:37.142Z,9.66
2018-12-07T14:58:13.421Z,9.59
2018-12-07T15:00:49.582Z,9.70
2018-12-07T15:03:25.569Z,9.83
2018-12-07T15:06:01.407Z,9.79
2018-12-07T15:08:37.302Z,9.69
2018-12-07T15:11:13.253Z,9.53
2018-12-07T15:13:49.574Z,9.38
2018-12-07T15:16:26.046Z,9.15
2018-12-07T15:19:01.907Z,8.83
2018-12-07T15:21:38.002Z,8.81
2018-12-07T15:24:14.335Z,8.48
2018-12-07T15:26:50.603Z,8.21
2018-12-07T15:29:26.562Z,8.19
2018-12-07T15:32:02.589Z,8.18
2018-12-07T15:34:38.651Z,8.17
2018-12-07T15:37:14.638Z,7.93
2018-12-07T15:39:50.471Z,7.81
2018-12-07T15:42:26.339Z,7.72
2018-12-07T15:45:02.550Z,7.91
2018-12-07T15:47:39.358Z,7.99
2018-12-07T15:50:15.319Z,8.02
2018-12-07T15:52:51.180Z,7.99
2018-12-07T15:55:27.090Z,7.96
2018-12-07T15:58:03.300Z,7.92
2018-12-07T16:00:39.435Z,7.89
2018-12-07T16:03:15.236Z,7.91
2018-12-07T16:05:51.106Z,7.97
2018-12-07T16:08:27.242Z,7.98
2018-12-07T16:11:04.287Z,8.01
2018-12-07T16:13:40.269Z,8.19
2018-12-07T16:16:16.323Z,8.36
2018-12-07T16:18:52.349Z,8.37
2018-12-07T16:21:28.479Z,8.40
2018-12-07T16:24:04.593Z,8.43
2018-12-07T16:26:40.454Z,8.48
2018-12-07T16:29:16.680Z,8.40
2018-12-07T16:31:52.661Z,8.57
2018-12-07T16:34:28.632Z,8.57
2018-12-07T16:37:04.573Z,8.65
2018-12-07T16:39:40.652Z,8.75
2018-12-07T16:42:17.281Z,8.83
2018-12-07T16:44:53.584Z,8.73
2018-12-07T16:47:29.593Z,8.75
2018-12-07T16:50:07.967Z,8.74
2018-12-07T16:52:44.047Z,8.71
2018-12-07T16:55:20.922Z,8.80
2018-12-07T16:57:57.258Z,8.86
2018-12-07T17:00:33.751Z,8.76
2018-12-07T17:03:09.739Z,8.87
2018-12-07T17:05:46.070Z,8.64
2018-12-07T17:08:22.080Z,8.65
2018-12-07T17:10:58.290Z,8.62
2018-12-07T17:13:34.164Z,8.50
2018-12-07T17:17:07.776Z,8.49
2018-12-07T17:19:44.084Z,8.55
2018-12-07T17:22:20.140Z,8.50
2018-12-07T17:24:56.092Z,8.60
2018-12-07T17:27:32.285Z,8.70
2018-12-07T17:30:09.413Z,8.68
2018-12-07T17:32:45.465Z,8.69
2018-12-07T17:35:21.510Z,8.60
2018-12-07T17:37:58.230Z,8.52
2018-12-07T17:40:34.065Z,8.53
2018-12-07T17:43:09.952Z,8.86
2018-12-07T17:45:45.884Z,9.10
2018-12-07T17:48:21.745Z,9.00
2018-12-07T17:50:57.936Z,8.98
2018-12-07T17:53:33.757Z,8.97
2018-12-07T17:56:09.781Z,9.10
2018-12-07T17:58:45.748Z,9.37
2018-12-07T18:01:21.508Z,9.62
2018-12-07T18:03:58.145Z,9.93
2018-12-07T18:06:33.873Z,9.95
2018-12-07T18:09:10.993Z,9.95
2018-12-07T18:11:46.919Z,9.99
2018-12-07T18:14:22.638Z,9.97
2018-12-07T18:16:58.467Z,9.80
2018-12-07T18:19:34.389Z,9.70
2018-12-07T18:22:10.370Z,9.70
2018-12-07T18:24:46.250Z,9.63
2018-12-07T18:27:22.169Z,9.59
2018-12-07T18:29:58.381Z,9.70
2018-12-07T18:32:34.251Z,9.62
2018-12-07T18:35:10.322Z,9.61
2018-12-07T18:37:46.403Z,9.61
2018-12-07T18:40:22.371Z,9.65
2018-12-07T18:42:58.369Z,9.67
2018-12-07T18:45:34.599Z,9.65
2018-12-07T18:48:10.861Z,9.58
2018-12-07T18:50:47.236Z,9.60
2018-12-07T18:53:22.968Z,9.76
2018-12-07T18:55:58.949Z,9.83
2018-12-07T18:58:35.142Z,9.87
2018-12-07T19:01:11.111Z,9.90
2018-12-07T19:03:46.975Z,9.79
2018-12-07T19:06:23.075Z,9.69
2018-12-07T19:08:58.819Z,9.75
2018-12-07T19:11:34.953Z,9.71
2018-12-07T19:14:11.090Z,9.73
2018-12-07T19:16:46.826Z,9.81
2018-12-07T19:19:22.946Z,9.84
2018-12-07T19:21:58.725Z,9.72
2018-12-07T19:24:34.733Z,9.65
2018-12-07T19:27:10.996Z,9.63
2018-12-07T19:29:46.948Z,9.56
2018-12-07T19:32:23.349Z,9.55
2018-12-07T19:34:59.225Z,9.47
2018-12-07T19:37:35.149Z,9.47
2018-12-07T19:40:11.251Z,9.58
2018-12-07T19:42:47.169Z,9.54
2018-12-07T19:45:24.698Z,9.51
2018-12-07T19:48:00.541Z,9.40
2018-12-07T19:50:36.590Z,9.13
2018-12-07T19:53:12.390Z,8.82
2018-12-07T19:55:48.183Z,8.54
2018-12-07T19:58:24.079Z,8.37
2018-12-07T20:01:00.327Z,8.10
2018-12-07T20:03:36.188Z,7.85
2018-12-07T20:06:12.048Z,7.69
2018-12-07T20:08:47.838Z,7.44
2018-12-07T20:11:23.667Z,7.24
2018-12-07T20:13:59.384Z,7.19
2018-12-07T20:16:35.419Z,7.34
2018-12-07T20:19:11.356Z,7.31
2018-12-07T20:21:47.223Z,7.45
2018-12-07T20:24:23.430Z,7.45
2018-12-07T20:26:59.477Z,7.45
2018-12-07T20:29:35.786Z,7.53
2018-12-07T20:32:11.636Z,7.56
2018-12-07T20:34:47.319Z,7.64
2018-12-07T20:37:23.230Z,7.50
2018-12-07T20:43:06.599Z,7.45
2018-12-07T20:45:42.377Z,7.35
2018-12-07T20:48:19.044Z,7.19
2018-12-07T20:50:55.038Z,7.15
2018-12-07T20:53:32.485Z,7.14
2018-12-07T20:56:08.384Z,7.13
2018-12-07T20:58:45.488Z,7.15
2018-12-07T21:01:22.376Z,6.91
2018-12-07T21:04:41.671Z,6.50
2018-12-07T21:07:40.419Z,5.94
2018-12-07T21:15:44.344Z,5.35
2018-12-07T21:18:20.174Z,5.39
2018-12-07T21:20:56.348Z,5.38
2018-12-07T21:23:32.414Z,5.40
2018-12-07T21:26:08.257Z,5.37
2018-12-07T21:28:44.207Z,5.33
2018-12-07T21:31:19.991Z,5.23
2018-12-07T21:34:10.368Z,5.19
2018-12-07T21:36:46.997Z,5.16
2018-12-07T21:39:39.622Z,5.14
2018-12-07T21:42:15.588Z,4.99
2018-12-07T21:44:51.521Z,4.89
2018-12-07T21:48:49.646Z,4.73
2018-12-07T21:52:44.399Z,4.61
2018-12-07T21:55:21.227Z,4.54
2018-12-07T21:57:57.304Z,4.56
2018-12-07T22:00:33.283Z,4.55
2018-12-07T22:03:09.830Z,4.61
2018-12-07T22:05:45.440Z,4.64
2018-12-07T22:08:21.801Z,4.66
2018-12-07T22:10:57.967Z,4.67
2018-12-07T22:13:34.225Z,4.71
2018-12-07T22:16:10.990Z,4.75
2018-12-07T22:18:46.670Z,4.76
2018-12-07T22:21:23.482Z,4.78
2018-12-07T22:23:59.373Z,4.78
2018-12-07T22:26:35.015Z,4.76
2018-12-07T22:29:10.693Z,4.74
2018-12-07T22:31:46.570Z,4.77
2018-12-07T22:34:22.422Z,4.74
2018-12-07T22:36:58.122Z,4.76
2018-12-07T22:39:34.020Z,4.79
2018-12-07T22:42:09.855Z,4.81
2018-12-07T22:44:46.648Z,4.77
2018-12-07T22:47:22.235Z,4.87
2018-12-07T22:49:57.804Z,4.84
2018-12-07T22:52:33.441Z,4.86
2018-12-07T22:55:09.523Z,4.89
2018-12-07T22:57:45.077Z,4.85
2018-12-07T23:00:22.368Z,4.85
2018-12-07T23:02:58.058Z,4.81
2018-12-07T23:05:33.705Z,4.77
2018-12-07T23:08:09.332Z,4.69
2018-12-07T23:13:26.579Z,4.73
2018-12-07T23:16:02.409Z,4.74
2018-12-07T23:18:38.114Z,4.78
2018-12-07T23:21:13.952Z,4.76
2018-12-07T23:23:49.540Z,4.74
2018-12-07T23:26:25.145Z,4.72
2018-12-07T23:29:00.845Z,4.70
2018-12-07T23:31:36.613Z,4.71
2018-12-07T23:34:12.546Z,4.71
2018-12-07T23:36:48.310Z,4.80
2018-12-07T23:39:23.951Z,4.79
2018-12-07T23:41:59.537Z,4.76
2018-12-07T23:44:35.261Z,4.83
2018-12-07T23:47:10.815Z,4.78
2018-12-07T23:52:30.748Z,4.77
2018-12-07T23:55:06.873Z,4.73
2018-12-07T23:57:42.715Z,4.71
